Vinings, Georgia
Current Conditions -  °F | °C
As of 12:58 AM on Friday 31 Oct 2014 (Local Time) from KMGE Reporting Station
Clear Clear  
Wind Chill: 41°   Ceiling: Unl
Heat Index: 45°   Visibility: 10mi
Dew Point: 40°   Wind: 7mph
Humidity: 84%   Direction: 280°W
Pressure: 29.97"   Gusts: NA
Location:  33.87°N, 84.47°W
Report Text: KMGE 310458Z AUTO 28006KT 10SM CLR 07/05 A2997 RMK AO2 SLP148 T00710045 401950056 $
Loading
Personal Weather Stations






























Interactive Weather Map New forecast layout! Learn more

10-Day Weather Forecast

Advertisements
Track Severe Weather on mobile